sensor_id;sensor_type;location;lat;lon;timestamp;temperature;humidity
4749;DHT22;2388;53.582;9.962;2023-06-19T00:00:54;22.00;99.90
4749;DHT22;2388;53.582;9.962;2023-06-19T00:03:20;21.90;99.90
4749;DHT22;2388;53.582;9.962;2023-06-19T00:05:45;21.90;99.90
4749;DHT22;2388;53.582;9.962;2023-06-19T00:08:11;21.90;99.90
4749;DHT22;2388;53.582;9.962;2023-06-19T00:10:36;21.90;99.90
4749;DHT22;2388;53.582;9.962;2023-06-19T00:13:02;21.90;99.90
4749;DHT22;2388;53.582;9.962;2023-06-19T00:15:28;21.90;99.90
4749;DHT22;2388;53.582;9.962;2023-06-19T00:17:56;21.90;99.90
4749;DHT22;2388;53.582;9.962;2023-06-19T00:20:22;21.90;99.90
4749;DHT22;2388;53.582;9.962;2023-06-19T00:22:48;21.90;99.90
4749;DHT22;2388;53.582;9.962;2023-06-19T00:25:19;21.90;99.90
4749;DHT22;2388;53.582;9.962;2023-06-19T00:27:46;21.90;99.90
4749;DHT22;2388;53.582;9.962;2023-06-19T00:30:12;21.90;99.90
4749;DHT22;2388;53.582;9.962;2023-06-19T00:32:37;21.80;99.90
4749;DHT22;2388;53.582;9.962;2023-06-19T00:35:15;21.80;99.90
4749;DHT22;2388;53.582;9.962;2023-06-19T00:37:41;21.80;99.90
4749;DHT22;2388;53.582;9.962;2023-06-19T00:40:19;21.70;99.90
4749;DHT22;2388;53.582;9.962;2023-06-19T00:42:46;21.70;99.90
4749;DHT22;2388;53.582;9.962;2023-06-19T00:45:12;21.70;99.90
4749;DHT22;2388;53.582;9.962;2023-06-19T00:47:37;21.80;99.90
4749;DHT22;2388;53.582;9.962;2023-06-19T00:50:04;21.70;99.90
4749;DHT22;2388;53.582;9.962;2023-06-19T00:52:30;21.70;99.90
4749;DHT22;2388;53.582;9.962;2023-06-19T00:54:55;21.70;99.90
4749;DHT22;2388;53.582;9.962;2023-06-19T00:57:21;21.70;99.90
4749;DHT22;2388;53.582;9.962;2023-06-19T00:59:47;21.70;99.90
4749;DHT22;2388;53.582;9.962;2023-06-19T01:02:13;21.70;99.90
4749;DHT22;2388;53.582;9.962;2023-06-19T01:04:38;21.70;99.90
4749;DHT22;2388;53.582;9.962;2023-06-19T01:07:09;21.70;99.90
4749;DHT22;2388;53.582;9.962;2023-06-19T01:09:46;21.70;99.90
4749;DHT22;2388;53.582;9.962;2023-06-19T01:12:19;21.70;99.90
4749;DHT22;2388;53.582;9.962;2023-06-19T01:14:57;21.60;99.90
4749;DHT22;2388;53.582;9.962;2023-06-19T01:17:23;21.60;99.90
4749;DHT22;2388;53.582;9.962;2023-06-19T01:19:49;21.60;99.90
4749;DHT22;2388;53.582;9.962;2023-06-19T01:22:31;21.60;99.90
4749;DHT22;2388;53.582;9.962;2023-06-19T01:24:56;21.60;99.90
4749;DHT22;2388;53.582;9.962;2023-06-19T01:27:23;21.60;99.90
4749;DHT22;2388;53.582;9.962;2023-06-19T01:29:51;21.60;99.90
4749;DHT22;2388;53.582;9.962;2023-06-19T01:32:24;21.60;99.90
4749;DHT22;2388;53.582;9.962;2023-06-19T01:34:52;21.60;99.90
4749;DHT22;2388;53.582;9.962;2023-06-19T01:37:20;21.60;99.90
4749;DHT22;2388;53.582;9.962;2023-06-19T01:39:46;21.50;99.90
4749;DHT22;2388;53.582;9.962;2023-06-19T01:42:13;21.50;99.90
4749;DHT22;2388;53.582;9.962;2023-06-19T01:44:40;21.50;99.90
4749;DHT22;2388;53.582;9.962;2023-06-19T01:47:11;21.50;99.90
4749;DHT22;2388;53.582;9.962;2023-06-19T01:49:38;21.50;99.90
4749;DHT22;2388;53.582;9.962;2023-06-19T01:52:04;21.50;99.90
4749;DHT22;2388;53.582;9.962;2023-06-19T01:54:29;21.50;99.90
4749;DHT22;2388;53.582;9.962;2023-06-19T01:56:56;21.50;99.90
4749;DHT22;2388;53.582;9.962;2023-06-19T01:59:21;21.50;99.90
4749;DHT22;2388;53.582;9.962;2023-06-19T02:01:47;21.50;99.90
4749;DHT22;2388;53.582;9.962;2023-06-19T02:04:12;21.40;99.90
4749;DHT22;2388;53.582;9.962;2023-06-19T02:06:38;21.40;99.90
4749;DHT22;2388;53.582;9.962;2023-06-19T02:09:03;21.40;99.90
4749;DHT22;2388;53.582;9.962;2023-06-19T02:11:29;21.40;99.90
4749;DHT22;2388;53.582;9.962;2023-06-19T02:13:54;21.40;99.90
4749;DHT22;2388;53.582;9.962;2023-06-19T02:16:20;21.30;99.90
4749;DHT22;2388;53.582;9.962;2023-06-19T02:18:45;21.30;99.90
4749;DHT22;2388;53.582;9.962;2023-06-19T02:21:11;21.30;99.90
4749;DHT22;2388;53.582;9.962;2023-06-19T02:23:36;21.30;99.90
4749;DHT22;2388;53.582;9.962;2023-06-19T02:26:02;21.30;99.90
4749;DHT22;2388;53.582;9.962;2023-06-19T02:28:28;21.30;99.90
4749;DHT22;2388;53.582;9.962;2023-06-19T02:30:54;21.30;99.90
4749;DHT22;2388;53.582;9.962;2023-06-19T02:33:19;21.30;99.90
4749;DHT22;2388;53.582;9.962;2023-06-19T02:35:45;21.30;99.90
4749;DHT22;2388;53.582;9.962;2023-06-19T02:38:11;21.30;99.90
4749;DHT22;2388;53.582;9.962;2023-06-19T02:40:38;21.20;99.90
4749;DHT22;2388;53.582;9.962;2023-06-19T02:43:03;21.30;99.90
4749;DHT22;2388;53.582;9.962;2023-06-19T02:45:29;21.20;99.90
4749;DHT22;2388;53.582;9.962;2023-06-19T02:47:54;21.20;99.90
4749;DHT22;2388;53.582;9.962;2023-06-19T02:50:20;21.20;99.90
4749;DHT22;2388;53.582;9.962;2023-06-19T02:52:45;21.20;99.90
4749;DHT22;2388;53.582;9.962;2023-06-19T02:55:11;21.20;99.90
4749;DHT22;2388;53.582;9.962;2023-06-19T02:57:36;21.20;99.90
4749;DHT22;2388;53.582;9.962;2023-06-19T03:00:03;21.20;99.90
4749;DHT22;2388;53.582;9.962;2023-06-19T03:02:31;21.20;99.90
4749;DHT22;2388;53.582;9.962;2023-06-19T03:04:56;21.20;99.90
4749;DHT22;2388;53.582;9.962;2023-06-19T03:07:22;21.10;99.90
4749;DHT22;2388;53.582;9.962;2023-06-19T03:09:47;21.20;99.90
4749;DHT22;2388;53.582;9.962;2023-06-19T03:12:13;21.10;99.90
4749;DHT22;2388;53.582;9.962;2023-06-19T03:14:38;21.10;99.90
4749;DHT22;2388;53.582;9.962;2023-06-19T03:17:05;21.10;99.90
4749;DHT22;2388;53.582;9.962;2023-06-19T03:19:31;21.10;99.90
4749;DHT22;2388;53.582;9.962;2023-06-19T03:21:56;21.00;99.90
4749;DHT22;2388;53.582;9.962;2023-06-19T03:24:22;21.10;99.90
4749;DHT22;2388;53.582;9.962;2023-06-19T03:26:47;21.00;99.90
4749;DHT22;2388;53.582;9.962;2023-06-19T03:29:13;21.10;99.90
4749;DHT22;2388;53.582;9.962;2023-06-19T03:31:38;21.10;99.90
4749;DHT22;2388;53.582;9.962;2023-06-19T03:34:05;21.10;99.90
4749;DHT22;2388;53.582;9.962;2023-06-19T03:36:30;21.10;99.90
4749;DHT22;2388;53.582;9.962;2023-06-19T03:38:56;21.00;99.90
4749;DHT22;2388;53.582;9.962;2023-06-19T03:41:21;21.10;99.90
4749;DHT22;2388;53.582;9.962;2023-06-19T03:43:47;21.10;99.90
4749;DHT22;2388;53.582;9.962;2023-06-19T03:46:12;21.10;99.90
4749;DHT22;2388;53.582;9.962;2023-06-19T03:48:38;21.10;99.90
4749;DHT22;2388;53.582;9.962;2023-06-19T03:51:03;21.10;99.90
4749;DHT22;2388;53.582;9.962;2023-06-19T03:53:29;21.10;99.90
4749;DHT22;2388;53.582;9.962;2023-06-19T03:55:54;21.00;99.90
4749;DHT22;2388;53.582;9.962;2023-06-19T03:58:20;21.00;99.90
4749;DHT22;2388;53.582;9.962;2023-06-19T04:00:45;21.00;99.90
4749;DHT22;2388;53.582;9.962;2023-06-19T04:03:11;21.00;99.90
4749;DHT22;2388;53.582;9.962;2023-06-19T04:05:36;21.00;99.90
4749;DHT22;2388;53.582;9.962;2023-06-19T04:08:02;21.00;99.90
4749;DHT22;2388;53.582;9.962;2023-06-19T04:10:28;21.00;99.90
4749;DHT22;2388;53.582;9.962;2023-06-19T04:12:54;21.00;99.90
4749;DHT22;2388;53.582;9.962;2023-06-19T04:15:21;21.00;99.90
4749;DHT22;2388;53.582;9.962;2023-06-19T04:17:46;21.00;99.90
4749;DHT22;2388;53.582;9.962;2023-06-19T04:20:12;21.00;99.90
4749;DHT22;2388;53.582;9.962;2023-06-19T04:22:38;21.00;99.90
4749;DHT22;2388;53.582;9.962;2023-06-19T04:25:08;21.00;99.90
4749;DHT22;2388;53.582;9.962;2023-06-19T04:27:35;21.00;99.90
4749;DHT22;2388;53.582;9.962;2023-06-19T04:30:02;20.90;99.90
4749;DHT22;2388;53.582;9.962;2023-06-19T04:32:28;21.00;99.90
4749;DHT22;2388;53.582;9.962;2023-06-19T04:34:53;21.00;99.90
4749;DHT22;2388;53.582;9.962;2023-06-19T04:37:19;21.00;99.90
4749;DHT22;2388;53.582;9.962;2023-06-19T04:39:46;21.00;99.90
4749;DHT22;2388;53.582;9.962;2023-06-19T04:42:13;21.00;99.90
4749;DHT22;2388;53.582;9.962;2023-06-19T04:44:45;21.10;99.90
4749;DHT22;2388;53.582;9.962;2023-06-19T04:47:10;21.10;99.90
4749;DHT22;2388;53.582;9.962;2023-06-19T04:49:36;21.00;99.90
4749;DHT22;2388;53.582;9.962;2023-06-19T04:52:01;21.00;99.90
4749;DHT22;2388;53.582;9.962;2023-06-19T04:54:28;21.00;99.90
4749;DHT22;2388;53.582;9.962;2023-06-19T04:56:54;21.00;99.90
4749;DHT22;2388;53.582;9.962;2023-06-19T04:59:19;21.10;99.90
4749;DHT22;2388;53.582;9.962;2023-06-19T05:01:45;21.10;99.90
4749;DHT22;2388;53.582;9.962;2023-06-19T05:04:10;21.10;99.90
4749;DHT22;2388;53.582;9.962;2023-06-19T05:06:36;21.10;99.90
4749;DHT22;2388;53.582;9.962;2023-06-19T05:09:02;21.10;99.90
4749;DHT22;2388;53.582;9.962;2023-06-19T05:11:28;21.10;99.90
4749;DHT22;2388;53.582;9.962;2023-06-19T05:13:53;21.10;99.90
4749;DHT22;2388;53.582;9.962;2023-06-19T05:16:18;21.10;99.90
4749;DHT22;2388;53.582;9.962;2023-06-19T05:18:45;21.10;99.90
4749;DHT22;2388;53.582;9.962;2023-06-19T05:21:11;21.10;99.90
4749;DHT22;2388;53.582;9.962;2023-06-19T05:23:37;21.10;99.90
4749;DHT22;2388;53.582;9.962;2023-06-19T05:26:03;21.10;99.90
4749;DHT22;2388;53.582;9.962;2023-06-19T05:28:29;21.10;99.90
4749;DHT22;2388;53.582;9.962;2023-06-19T05:30:55;21.10;99.90
4749;DHT22;2388;53.582;9.962;2023-06-19T05:33:20;21.10;99.90
4749;DHT22;2388;53.582;9.962;2023-06-19T05:35:48;21.10;99.90
4749;DHT22;2388;53.582;9.962;2023-06-19T05:38:18;21.10;99.90
4749;DHT22;2388;53.582;9.962;2023-06-19T05:40:43;21.10;99.90
4749;DHT22;2388;53.582;9.962;2023-06-19T05:43:09;21.10;99.90
4749;DHT22;2388;53.582;9.962;2023-06-19T05:45:34;21.10;99.90
4749;DHT22;2388;53.582;9.962;2023-06-19T05:48:00;21.10;99.90
4749;DHT22;2388;53.582;9.962;2023-06-19T05:50:26;21.10;99.90
4749;DHT22;2388;53.582;9.962;2023-06-19T05:52:51;21.10;99.90
4749;DHT22;2388;53.582;9.962;2023-06-19T05:55:17;21.10;99.90
4749;DHT22;2388;53.582;9.962;2023-06-19T05:57:42;21.20;99.90
4749;DHT22;2388;53.582;9.962;2023-06-19T06:00:09;21.10;99.90
4749;DHT22;2388;53.582;9.962;2023-06-19T06:02:39;21.20;99.90
4749;DHT22;2388;53.582;9.962;2023-06-19T06:05:05;21.20;99.90
4749;DHT22;2388;53.582;9.962;2023-06-19T06:07:31;21.20;99.90
4749;DHT22;2388;53.582;9.962;2023-06-19T06:09:56;21.30;99.90
4749;DHT22;2388;53.582;9.962;2023-06-19T06:12:22;21.30;99.90
4749;DHT22;2388;53.582;9.962;2023-06-19T06:14:48;21.30;99.90
4749;DHT22;2388;53.582;9.962;2023-06-19T06:17:13;21.30;99.90
4749;DHT22;2388;53.582;9.962;2023-06-19T06:19:39;21.30;99.90
4749;DHT22;2388;53.582;9.962;2023-06-19T06:22:04;21.30;99.90
4749;DHT22;2388;53.582;9.962;2023-06-19T06:24:30;21.30;99.90
4749;DHT22;2388;53.582;9.962;2023-06-19T06:26:55;21.30;99.90
4749;DHT22;2388;53.582;9.962;2023-06-19T06:29:21;21.20;99.90
4749;DHT22;2388;53.582;9.962;2023-06-19T06:31:47;21.20;99.90
4749;DHT22;2388;53.582;9.962;2023-06-19T06:34:13;21.20;99.90
4749;DHT22;2388;53.582;9.962;2023-06-19T06:36:38;21.10;99.90
4749;DHT22;2388;53.582;9.962;2023-06-19T06:39:05;21.10;99.90
4749;DHT22;2388;53.582;9.962;2023-06-19T06:41:31;21.10;99.90
4749;DHT22;2388;53.582;9.962;2023-06-19T06:43:57;21.10;99.90
4749;DHT22;2388;53.582;9.962;2023-06-19T06:46:23;21.00;99.90
4749;DHT22;2388;53.582;9.962;2023-06-19T06:48:49;21.10;99.90
4749;DHT22;2388;53.582;9.962;2023-06-19T06:51:15;21.10;99.90
4749;DHT22;2388;53.582;9.962;2023-06-19T06:53:40;21.10;99.90
4749;DHT22;2388;53.582;9.962;2023-06-19T06:56:06;21.20;99.90
4749;DHT22;2388;53.582;9.962;2023-06-19T06:58:31;21.20;99.90
4749;DHT22;2388;53.582;9.962;2023-06-19T07:00:57;21.20;99.90
4749;DHT22;2388;53.582;9.962;2023-06-19T07:03:22;21.20;99.90
4749;DHT22;2388;53.582;9.962;2023-06-19T07:05:48;21.20;99.90
4749;DHT22;2388;53.582;9.962;2023-06-19T07:08:14;21.20;99.90
4749;DHT22;2388;53.582;9.962;2023-06-19T07:10:39;21.20;99.90
4749;DHT22;2388;53.582;9.962;2023-06-19T07:13:05;21.20;99.90
4749;DHT22;2388;53.582;9.962;2023-06-19T07:15:30;21.30;99.90
4749;DHT22;2388;53.582;9.962;2023-06-19T07:17:56;21.30;99.90
4749;DHT22;2388;53.582;9.962;2023-06-19T07:20:22;21.30;99.90
4749;DHT22;2388;53.582;9.962;2023-06-19T07:22:50;21.30;99.90
4749;DHT22;2388;53.582;9.962;2023-06-19T07:25:15;21.30;99.90
4749;DHT22;2388;53.582;9.962;2023-06-19T07:27:41;21.40;99.90
4749;DHT22;2388;53.582;9.962;2023-06-19T07:30:07;21.40;99.90
4749;DHT22;2388;53.582;9.962;2023-06-19T07:32:33;21.40;99.90
4749;DHT22;2388;53.582;9.962;2023-06-19T07:34:58;21.30;99.90
4749;DHT22;2388;53.582;9.962;2023-06-19T07:37:24;21.30;99.90
4749;DHT22;2388;53.582;9.962;2023-06-19T07:53:18;21.40;99.90
4749;DHT22;2388;53.582;9.962;2023-06-19T07:55:43;21.40;99.90
4749;DHT22;2388;53.582;9.962;2023-06-19T07:58:09;21.40;99.90
4749;DHT22;2388;53.582;9.962;2023-06-19T08:00:34;21.50;99.90
4749;DHT22;2388;53.582;9.962;2023-06-19T08:03:00;21.50;99.90
4749;DHT22;2388;53.582;9.962;2023-06-19T08:05:26;21.60;99.90
4749;DHT22;2388;53.582;9.962;2023-06-19T08:07:51;21.60;99.90
4749;DHT22;2388;53.582;9.962;2023-06-19T08:10:17;21.70;99.90
4749;DHT22;2388;53.582;9.962;2023-06-19T08:12:43;21.80;99.90
4749;DHT22;2388;53.582;9.962;2023-06-19T08:15:10;21.80;99.90
4749;DHT22;2388;53.582;9.962;2023-06-19T08:17:36;21.90;99.90
4749;DHT22;2388;53.582;9.962;2023-06-19T08:20:01;21.90;99.90
4749;DHT22;2388;53.582;9.962;2023-06-19T08:22:30;21.90;99.90
4749;DHT22;2388;53.582;9.962;2023-06-19T08:24:56;21.90;99.90
4749;DHT22;2388;53.582;9.962;2023-06-19T08:27:21;22.00;99.90
4749;DHT22;2388;53.582;9.962;2023-06-19T08:29:47;22.00;99.90
4749;DHT22;2388;53.582;9.962;2023-06-19T08:32:12;22.00;99.90
4749;DHT22;2388;53.582;9.962;2023-06-19T08:34:38;22.10;99.90
4749;DHT22;2388;53.582;9.962;2023-06-19T08:37:05;22.10;99.90
4749;DHT22;2388;53.582;9.962;2023-06-19T08:39:30;22.20;99.90
4749;DHT22;2388;53.582;9.962;2023-06-19T08:41:56;22.20;99.90
4749;DHT22;2388;53.582;9.962;2023-06-19T08:44:21;22.30;99.90
4749;DHT22;2388;53.582;9.962;2023-06-19T08:46:47;22.30;99.90
4749;DHT22;2388;53.582;9.962;2023-06-19T08:49:13;22.40;99.90
4749;DHT22;2388;53.582;9.962;2023-06-19T08:51:40;22.50;99.90
4749;DHT22;2388;53.582;9.962;2023-06-19T08:54:07;22.60;99.90
4749;DHT22;2388;53.582;9.962;2023-06-19T08:56:34;22.60;99.90
4749;DHT22;2388;53.582;9.962;2023-06-19T08:59:16;22.70;99.90
4749;DHT22;2388;53.582;9.962;2023-06-19T09:01:50;22.80;99.90
4749;DHT22;2388;53.582;9.962;2023-06-19T09:04:23;22.80;99.90
4749;DHT22;2388;53.582;9.962;2023-06-19T09:07:00;22.80;99.90
4749;DHT22;2388;53.582;9.962;2023-06-19T09:09:26;22.80;99.90
4749;DHT22;2388;53.582;9.962;2023-06-19T09:12:06;22.90;99.90
4749;DHT22;2388;53.582;9.962;2023-06-19T09:14:36;22.90;99.90
4749;DHT22;2388;53.582;9.962;2023-06-19T09:17:06;23.00;99.90
4749;DHT22;2388;53.582;9.962;2023-06-19T09:19:32;23.00;99.90
4749;DHT22;2388;53.582;9.962;2023-06-19T09:22:09;23.10;99.90
4749;DHT22;2388;53.582;9.962;2023-06-19T09:24:39;23.20;99.90
4749;DHT22;2388;53.582;9.962;2023-06-19T09:27:21;23.30;99.90
4749;DHT22;2388;53.582;9.962;2023-06-19T09:29:48;23.40;99.90
4749;DHT22;2388;53.582;9.962;2023-06-19T09:32:25;23.40;99.90
4749;DHT22;2388;53.582;9.962;2023-06-19T09:34:53;23.40;99.90
4749;DHT22;2388;53.582;9.962;2023-06-19T09:37:23;23.40;99.90
4749;DHT22;2388;53.582;9.962;2023-06-19T09:40:00;23.40;99.90
4749;DHT22;2388;53.582;9.962;2023-06-19T09:42:34;23.50;99.90
4749;DHT22;2388;53.582;9.962;2023-06-19T09:45:02;23.50;99.90
4749;DHT22;2388;53.582;9.962;2023-06-19T09:47:51;23.50;99.90
4749;DHT22;2388;53.582;9.962;2023-06-19T09:50:17;23.60;99.90
4749;DHT22;2388;53.582;9.962;2023-06-19T09:52:43;23.60;99.90
4749;DHT22;2388;53.582;9.962;2023-06-19T09:55:11;23.70;99.90
4749;DHT22;2388;53.582;9.962;2023-06-19T09:57:41;23.70;99.90
4749;DHT22;2388;53.582;9.962;2023-06-19T10:00:08;23.60;99.90
4749;DHT22;2388;53.582;9.962;2023-06-19T10:02:44;23.60;99.90
4749;DHT22;2388;53.582;9.962;2023-06-19T10:05:10;23.70;99.90
4749;DHT22;2388;53.582;9.962;2023-06-19T10:07:40;23.70;99.90
4749;DHT22;2388;53.582;9.962;2023-06-19T10:10:09;23.70;99.90
4749;DHT22;2388;53.582;9.962;2023-06-19T10:12:43;23.80;99.90
4749;DHT22;2388;53.582;9.962;2023-06-19T10:17:51;23.80;99.90
4749;DHT22;2388;53.582;9.962;2023-06-19T10:20:27;23.90;99.90
4749;DHT22;2388;53.582;9.962;2023-06-19T10:25:38;23.90;99.90
4749;DHT22;2388;53.582;9.962;2023-06-19T10:28:15;23.90;99.90
4749;DHT22;2388;53.582;9.962;2023-06-19T10:30:41;23.80;99.90
4749;DHT22;2388;53.582;9.962;2023-06-19T10:33:07;23.90;99.90
4749;DHT22;2388;53.582;9.962;2023-06-19T10:35:38;23.90;99.90
4749;DHT22;2388;53.582;9.962;2023-06-19T10:38:05;23.90;99.90
4749;DHT22;2388;53.582;9.962;2023-06-19T10:40:30;24.00;99.90
4749;DHT22;2388;53.582;9.962;2023-06-19T10:42:56;23.90;99.90
4749;DHT22;2388;53.582;9.962;2023-06-19T10:45:21;23.90;99.90
4749;DHT22;2388;53.582;9.962;2023-06-19T10:47:53;24.00;99.90
4749;DHT22;2388;53.582;9.962;2023-06-19T10:50:19;24.00;99.90
4749;DHT22;2388;53.582;9.962;2023-06-19T10:52:46;24.20;99.90
4749;DHT22;2388;53.582;9.962;2023-06-19T10:55:13;24.40;99.90
4749;DHT22;2388;53.582;9.962;2023-06-19T10:57:41;24.40;99.90
4749;DHT22;2388;53.582;9.962;2023-06-19T11:00:10;24.30;99.90
4749;DHT22;2388;53.582;9.962;2023-06-19T11:02:40;24.20;99.90
4749;DHT22;2388;53.582;9.962;2023-06-19T11:05:09;24.10;99.90
4749;DHT22;2388;53.582;9.962;2023-06-19T11:07:36;24.10;99.90
4749;DHT22;2388;53.582;9.962;2023-06-19T11:10:03;24.30;99.90
4749;DHT22;2388;53.582;9.962;2023-06-19T11:12:28;24.30;99.90
4749;DHT22;2388;53.582;9.962;2023-06-19T11:14:54;24.30;99.90
4749;DHT22;2388;53.582;9.962;2023-06-19T11:17:20;24.20;99.90
4749;DHT22;2388;53.582;9.962;2023-06-19T11:19:49;24.10;99.90
4749;DHT22;2388;53.582;9.962;2023-06-19T11:22:15;24.10;99.90
4749;DHT22;2388;53.582;9.962;2023-06-19T11:24:45;24.30;99.90
4749;DHT22;2388;53.582;9.962;2023-06-19T11:27:19;24.70;99.90
4749;DHT22;2388;53.582;9.962;2023-06-19T11:29:55;25.00;99.90
4749;DHT22;2388;53.582;9.962;2023-06-19T11:32:21;25.30;99.90
4749;DHT22;2388;53.582;9.962;2023-06-19T11:34:50;25.40;99.90
4749;DHT22;2388;53.582;9.962;2023-06-19T11:37:18;25.30;99.90
4749;DHT22;2388;53.582;9.962;2023-06-19T11:39:46;25.30;99.90
4749;DHT22;2388;53.582;9.962;2023-06-19T11:42:12;25.60;99.90
4749;DHT22;2388;53.582;9.962;2023-06-19T11:44:54;25.40;99.90
4749;DHT22;2388;53.582;9.962;2023-06-19T11:47:20;25.60;99.90
4749;DHT22;2388;53.582;9.962;2023-06-19T11:49:48;25.50;99.90
4749;DHT22;2388;53.582;9.962;2023-06-19T11:52:14;25.50;99.90
4749;DHT22;2388;53.582;9.962;2023-06-19T11:54:40;25.40;99.90
4749;DHT22;2388;53.582;9.962;2023-06-19T11:57:05;25.50;99.90
4749;DHT22;2388;53.582;9.962;2023-06-19T11:59:31;25.70;99.90
4749;DHT22;2388;53.582;9.962;2023-06-19T12:01:56;25.90;99.90
4749;DHT22;2388;53.582;9.962;2023-06-19T12:04:24;26.20;99.90
4749;DHT22;2388;53.582;9.962;2023-06-19T12:06:49;26.40;99.90
4749;DHT22;2388;53.582;9.962;2023-06-19T12:09:15;26.50;99.90
4749;DHT22;2388;53.582;9.962;2023-06-19T12:11:41;26.40;99.90
4749;DHT22;2388;53.582;9.962;2023-06-19T12:14:07;26.40;99.90
4749;DHT22;2388;53.582;9.962;2023-06-19T12:16:32;26.30;99.90
4749;DHT22;2388;53.582;9.962;2023-06-19T12:18:58;26.30;99.90
4749;DHT22;2388;53.582;9.962;2023-06-19T12:21:23;26.50;99.90
4749;DHT22;2388;53.582;9.962;2023-06-19T12:23:49;26.70;99.90
4749;DHT22;2388;53.582;9.962;2023-06-19T12:26:14;26.80;99.90
4749;DHT22;2388;53.582;9.962;2023-06-19T12:28:40;26.70;99.90
4749;DHT22;2388;53.582;9.962;2023-06-19T12:31:06;26.70;99.90
4749;DHT22;2388;53.582;9.962;2023-06-19T12:33:31;26.60;99.90
4749;DHT22;2388;53.582;9.962;2023-06-19T12:35:58;26.60;99.90
4749;DHT22;2388;53.582;9.962;2023-06-19T12:38:23;26.50;99.90
4749;DHT22;2388;53.582;9.962;2023-06-19T12:40:49;26.50;99.90
4749;DHT22;2388;53.582;9.962;2023-06-19T12:43:15;26.60;99.90
4749;DHT22;2388;53.582;9.962;2023-06-19T12:49:30;26.50;99.90
4749;DHT22;2388;53.582;9.962;2023-06-19T12:55:18;26.60;99.90
4749;DHT22;2388;53.582;9.962;2023-06-19T13:01:05;27.00;99.90
4749;DHT22;2388;53.582;9.962;2023-06-19T13:03:31;27.00;99.90
4749;DHT22;2388;53.582;9.962;2023-06-19T13:05:56;26.90;99.90
4749;DHT22;2388;53.582;9.962;2023-06-19T13:08:22;26.80;99.90
4749;DHT22;2388;53.582;9.962;2023-06-19T13:10:47;26.60;99.90
4749;DHT22;2388;53.582;9.962;2023-06-19T13:13:13;26.60;99.90
4749;DHT22;2388;53.582;9.962;2023-06-19T13:15:39;26.60;99.90
4749;DHT22;2388;53.582;9.962;2023-06-19T13:18:04;26.60;99.90
4749;DHT22;2388;53.582;9.962;2023-06-19T13:20:30;26.50;99.90
4749;DHT22;2388;53.582;9.962;2023-06-19T13:22:55;26.60;99.90
4749;DHT22;2388;53.582;9.962;2023-06-19T13:25:21;26.50;99.90
4749;DHT22;2388;53.582;9.962;2023-06-19T13:27:46;26.40;99.90
4749;DHT22;2388;53.582;9.962;2023-06-19T13:30:12;26.30;99.90
4749;DHT22;2388;53.582;9.962;2023-06-19T13:32:38;26.30;99.90
4749;DHT22;2388;53.582;9.962;2023-06-19T13:35:06;26.60;99.90
4749;DHT22;2388;53.582;9.962;2023-06-19T13:37:35;27.00;99.90
4749;DHT22;2388;53.582;9.962;2023-06-19T13:40:01;27.20;99.90
4749;DHT22;2388;53.582;9.962;2023-06-19T13:42:29;27.50;99.90
4749;DHT22;2388;53.582;9.962;2023-06-19T13:44:55;27.70;99.90
4749;DHT22;2388;53.582;9.962;2023-06-19T13:47:20;27.70;99.90
4749;DHT22;2388;53.582;9.962;2023-06-19T13:49:46;27.60;99.90
4749;DHT22;2388;53.582;9.962;2023-06-19T13:52:11;27.40;99.90
4749;DHT22;2388;53.582;9.962;2023-06-19T13:54:37;27.20;99.90
4749;DHT22;2388;53.582;9.962;2023-06-19T13:57:02;27.20;99.90
4749;DHT22;2388;53.582;9.962;2023-06-19T13:59:29;27.30;99.90
4749;DHT22;2388;53.582;9.962;2023-06-19T14:01:55;27.60;99.90
4749;DHT22;2388;53.582;9.962;2023-06-19T14:04:20;27.70;99.90
4749;DHT22;2388;53.582;9.962;2023-06-19T14:06:46;27.80;99.90
4749;DHT22;2388;53.582;9.962;2023-06-19T14:09:12;27.70;99.90
4749;DHT22;2388;53.582;9.962;2023-06-19T14:11:37;27.60;99.90
4749;DHT22;2388;53.582;9.962;2023-06-19T14:14:03;27.30;99.90
4749;DHT22;2388;53.582;9.962;2023-06-19T14:16:28;26.90;99.90
4749;DHT22;2388;53.582;9.962;2023-06-19T14:18:54;26.60;99.90
4749;DHT22;2388;53.582;9.962;2023-06-19T14:21:19;26.30;99.90
4749;DHT22;2388;53.582;9.962;2023-06-19T14:23:45;26.20;99.90
4749;DHT22;2388;53.582;9.962;2023-06-19T14:26:11;26.20;99.90
4749;DHT22;2388;53.582;9.962;2023-06-19T14:28:37;26.20;99.90
4749;DHT22;2388;53.582;9.962;2023-06-19T14:31:04;25.90;99.90
4749;DHT22;2388;53.582;9.962;2023-06-19T14:33:29;25.70;99.90
4749;DHT22;2388;53.582;9.962;2023-06-19T14:35:55;25.60;99.90
4749;DHT22;2388;53.582;9.962;2023-06-19T14:38:20;25.50;99.90
4749;DHT22;2388;53.582;9.962;2023-06-19T14:40:46;25.40;99.90
4749;DHT22;2388;53.582;9.962;2023-06-19T14:43:11;25.40;99.90
4749;DHT22;2388;53.582;9.962;2023-06-19T14:45:37;25.30;99.90
4749;DHT22;2388;53.582;9.962;2023-06-19T14:48:05;25.30;99.90
4749;DHT22;2388;53.582;9.962;2023-06-19T14:50:30;25.30;99.90
4749;DHT22;2388;53.582;9.962;2023-06-19T14:52:56;25.20;99.90
4749;DHT22;2388;53.582;9.962;2023-06-19T14:55:21;25.20;99.90
4749;DHT22;2388;53.582;9.962;2023-06-19T14:57:47;25.20;99.90
4749;DHT22;2388;53.582;9.962;2023-06-19T15:00:13;25.20;99.90
4749;DHT22;2388;53.582;9.962;2023-06-19T15:02:39;25.20;99.90
4749;DHT22;2388;53.582;9.962;2023-06-19T15:05:05;25.20;99.90
4749;DHT22;2388;53.582;9.962;2023-06-19T15:07:31;25.20;99.90
4749;DHT22;2388;53.582;9.962;2023-06-19T15:09:59;25.10;99.90
4749;DHT22;2388;53.582;9.962;2023-06-19T15:12:25;25.10;99.90
4749;DHT22;2388;53.582;9.962;2023-06-19T15:18:28;25.20;99.90
4749;DHT22;2388;53.582;9.962;2023-06-19T15:24:15;25.00;99.90
4749;DHT22;2388;53.582;9.962;2023-06-19T15:26:41;25.00;99.90
4749;DHT22;2388;53.582;9.962;2023-06-19T15:29:06;25.00;99.90
4749;DHT22;2388;53.582;9.962;2023-06-19T15:31:32;24.90;99.90
4749;DHT22;2388;53.582;9.962;2023-06-19T15:33:57;25.00;99.90
4749;DHT22;2388;53.582;9.962;2023-06-19T15:36:23;25.00;99.90
4749;DHT22;2388;53.582;9.962;2023-06-19T15:38:48;25.00;99.90
4749;DHT22;2388;53.582;9.962;2023-06-19T15:41:14;25.00;99.90
4749;DHT22;2388;53.582;9.962;2023-06-19T15:43:41;25.00;99.90
4749;DHT22;2388;53.582;9.962;2023-06-19T15:46:06;25.00;99.90
4749;DHT22;2388;53.582;9.962;2023-06-19T15:48:34;25.00;99.90
4749;DHT22;2388;53.582;9.962;2023-06-19T15:51:00;25.00;99.90
4749;DHT22;2388;53.582;9.962;2023-06-19T15:53:25;25.00;99.90
4749;DHT22;2388;53.582;9.962;2023-06-19T15:55:50;24.90;99.90
4749;DHT22;2388;53.582;9.962;2023-06-19T15:58:16;24.90;99.90
4749;DHT22;2388;53.582;9.962;2023-06-19T16:04:03;24.80;99.90
4749;DHT22;2388;53.582;9.962;2023-06-19T16:06:29;24.80;99.90
4749;DHT22;2388;53.582;9.962;2023-06-19T16:08:55;24.90;99.90
4749;DHT22;2388;53.582;9.962;2023-06-19T16:11:22;24.80;99.90
4749;DHT22;2388;53.582;9.962;2023-06-19T16:13:48;24.80;99.90
4749;DHT22;2388;53.582;9.962;2023-06-19T16:16:14;24.80;99.90
4749;DHT22;2388;53.582;9.962;2023-06-19T16:18:39;24.80;99.90
4749;DHT22;2388;53.582;9.962;2023-06-19T16:21:05;24.80;99.90
4749;DHT22;2388;53.582;9.962;2023-06-19T16:23:30;24.80;99.90
4749;DHT22;2388;53.582;9.962;2023-06-19T16:25:56;24.80;99.90
4749;DHT22;2388;53.582;9.962;2023-06-19T16:28:21;24.80;99.90
4749;DHT22;2388;53.582;9.962;2023-06-19T16:30:47;24.80;99.90
4749;DHT22;2388;53.582;9.962;2023-06-19T16:33:12;24.80;99.90
4749;DHT22;2388;53.582;9.962;2023-06-19T16:35:38;24.80;99.90
4749;DHT22;2388;53.582;9.962;2023-06-19T16:38:03;24.80;99.90